createdAt,value
2023-07-24T00:03:00.173Z,3.33
2023-07-24T00:05:46.579Z,3.22
2023-07-24T00:08:32.713Z,3.50
2023-07-24T00:11:18.909Z,3.00
2023-07-24T00:14:05.131Z,2.92
2023-07-24T00:16:51.517Z,3.08
2023-07-24T00:19:36.935Z,3.35
2023-07-24T00:22:23.061Z,3.10
2023-07-24T00:25:10.262Z,3.00
2023-07-24T00:27:56.656Z,3.30
2023-07-24T00:30:43.676Z,3.35
2023-07-24T00:33:29.908Z,3.30
2023-07-24T00:36:15.569Z,2.80
2023-07-24T00:39:01.581Z,3.08
2023-07-24T00:41:50.124Z,3.58
2023-07-24T00:44:36.102Z,3.33
2023-07-24T00:47:22.716Z,3.45
2023-07-24T00:50:09.598Z,3.45
2023-07-24T00:52:55.729Z,3.58
2023-07-24T00:55:42.853Z,3.50
2023-07-24T00:58:29.307Z,3.25
2023-07-24T01:01:18.216Z,3.30
2023-07-24T01:04:05.583Z,3.45
2023-07-24T01:06:52.383Z,3.35
2023-07-24T01:09:37.980Z,3.40
2023-07-24T01:12:33.454Z,3.55
2023-07-24T01:15:28.878Z,3.38
2023-07-24T01:18:17.241Z,3.55
2023-07-24T01:21:03.253Z,3.60
2023-07-24T01:24:35.208Z,3.47
2023-07-24T01:27:25.659Z,3.63
2023-07-24T01:30:12.969Z,3.42
2023-07-24T01:32:58.368Z,3.70
2023-07-24T01:35:45.125Z,3.75
2023-07-24T01:38:35.745Z,3.60
2023-07-24T01:41:22.320Z,3.28
2023-07-24T01:44:07.842Z,3.30
2023-07-24T01:46:53.993Z,3.75
2023-07-24T01:49:40.024Z,3.55
2023-07-24T01:52:27.456Z,3.28
2023-07-24T01:55:13.528Z,3.55
2023-07-24T01:57:59.788Z,3.67
2023-07-24T02:00:45.191Z,4.05
2023-07-24T02:03:31.251Z,3.60
2023-07-24T02:06:16.998Z,3.50
2023-07-24T02:09:03.565Z,3.33
2023-07-24T02:11:49.467Z,3.42
2023-07-24T02:14:35.324Z,3.47
2023-07-24T02:17:21.159Z,3.25
2023-07-24T02:20:07.660Z,3.45
2023-07-24T02:23:02.859Z,3.40
2023-07-24T02:25:52.369Z,2.80
2023-07-24T02:28:38.168Z,3.15
2023-07-24T02:31:24.377Z,2.88
2023-07-24T02:34:10.384Z,2.83
2023-07-24T02:36:56.404Z,3.40
2023-07-24T02:39:42.270Z,3.50
2023-07-24T02:42:28.261Z,3.53
2023-07-24T02:45:14.380Z,3.35
2023-07-24T02:48:01.169Z,3.30
2023-07-24T02:50:50.961Z,3.20
2023-07-24T02:53:36.855Z,3.00
2023-07-24T02:56:22.957Z,3.25
2023-07-24T02:59:09.092Z,3.20
2023-07-24T03:01:54.798Z,2.85
2023-07-24T03:04:41.474Z,3.20
2023-07-24T03:07:27.002Z,3.13
2023-07-24T03:10:13.035Z,3.20
2023-07-24T03:12:58.714Z,3.22
2023-07-24T03:15:56.056Z,3.67
2023-07-24T03:18:41.772Z,3.47
2023-07-24T03:21:27.534Z,3.00
2023-07-24T03:24:13.623Z,2.90
2023-07-24T03:26:59.636Z,3.58
2023-07-24T03:29:45.687Z,3.00
2023-07-24T03:32:32.004Z,2.97
2023-07-24T03:35:17.994Z,3.25
2023-07-24T03:38:03.921Z,3.13
2023-07-24T03:40:50.930Z,3.03
2023-07-24T03:43:36.676Z,3.28
2023-07-24T03:46:22.306Z,3.35
2023-07-24T03:49:08.153Z,2.78
2023-07-24T03:51:53.653Z,3.00
2023-07-24T03:54:39.748Z,2.90
2023-07-24T03:57:25.545Z,2.95
2023-07-24T04:00:12.204Z,2.90
2023-07-24T04:02:57.835Z,3.05
2023-07-24T04:05:43.630Z,3.10
2023-07-24T04:08:29.267Z,3.08
2023-07-24T04:11:15.699Z,3.38
2023-07-24T04:14:01.576Z,2.90
2023-07-24T04:16:47.714Z,3.00
2023-07-24T04:19:33.591Z,2.97
2023-07-24T04:22:19.928Z,3.30
2023-07-24T04:25:06.153Z,3.17
2023-07-24T04:27:51.945Z,3.05
2023-07-24T04:30:38.165Z,2.90
2023-07-24T04:33:28.170Z,3.10
2023-07-24T04:36:15.829Z,2.90
2023-07-24T04:39:04.239Z,2.90
2023-07-24T04:41:51.792Z,2.92
2023-07-24T04:44:37.906Z,3.10
2023-07-24T04:47:23.504Z,3.30
2023-07-24T04:50:10.137Z,2.95
2023-07-24T04:52:55.924Z,3.20
2023-07-24T04:55:41.879Z,3.30
2023-07-24T04:58:27.578Z,3.00
2023-07-24T05:01:14.205Z,2.90
2023-07-24T05:03:59.877Z,3.13
2023-07-24T05:06:45.747Z,3.47
2023-07-24T05:09:31.383Z,3.25
2023-07-24T05:12:17.380Z,3.20
2023-07-24T05:15:03.551Z,3.75
2023-07-24T05:17:49.475Z,3.30
2023-07-24T05:20:35.023Z,3.55
2023-07-24T05:23:21.531Z,3.00
2023-07-24T05:26:07.076Z,3.38
2023-07-24T05:28:54.003Z,4.28
2023-07-24T05:31:39.864Z,3.80
2023-07-24T05:34:26.852Z,3.28
2023-07-24T05:37:12.640Z,3.38
2023-07-24T05:39:58.589Z,3.58
2023-07-24T05:42:44.691Z,4.00
2023-07-24T05:45:30.762Z,3.50
2023-07-24T05:48:16.382Z,3.60
2023-07-24T05:51:02.386Z,3.17
2023-07-24T05:53:48.386Z,3.53
2023-07-24T05:56:34.428Z,4.53
2023-07-24T05:59:20.068Z,4.90
2023-07-24T06:02:06.463Z,4.50
2023-07-24T06:04:52.246Z,5.05
2023-07-24T06:07:38.566Z,3.85
2023-07-24T06:10:24.120Z,6.00
2023-07-24T06:13:10.244Z,4.30
2023-07-24T06:15:56.171Z,3.63
2023-07-24T06:18:44.002Z,3.28
2023-07-24T06:21:29.826Z,3.28
2023-07-24T06:24:16.063Z,3.20
2023-07-24T06:27:02.139Z,3.30
2023-07-24T06:29:51.300Z,3.97
2023-07-24T06:32:39.243Z,2.80
2023-07-24T06:35:25.510Z,3.45
2023-07-24T06:38:11.082Z,3.20
2023-07-24T06:40:57.303Z,3.20
2023-07-24T06:43:43.944Z,2.78
2023-07-24T06:46:31.230Z,3.30
2023-07-24T06:49:17.253Z,3.03
2023-07-24T06:52:03.592Z,3.17
2023-07-24T06:54:49.094Z,3.30
2023-07-24T06:57:35.187Z,3.35
2023-07-24T07:00:20.823Z,3.22
2023-07-24T07:03:06.764Z,3.13
2023-07-24T07:05:52.945Z,3.10
2023-07-24T07:08:39.180Z,3.65
2023-07-24T07:11:25.276Z,3.47
2023-07-24T07:14:11.649Z,3.90
2023-07-24T07:16:57.193Z,3.08
2023-07-24T07:19:42.990Z,3.63
2023-07-24T07:22:28.918Z,3.80
2023-07-24T07:25:17.324Z,3.40
2023-07-24T07:28:02.967Z,3.40
2023-07-24T07:30:49.392Z,3.53
2023-07-24T07:33:35.393Z,3.25
2023-07-24T07:36:23.631Z,3.67
2023-07-24T07:39:10.759Z,3.60
2023-07-24T07:42:07.999Z,3.22
2023-07-24T07:45:02.438Z,3.58
2023-07-24T07:47:50.491Z,3.30
2023-07-24T07:50:36.717Z,3.35
2023-07-24T07:53:23.988Z,3.17
2023-07-24T07:56:09.829Z,3.22
2023-07-24T07:58:56.258Z,2.47
2023-07-24T08:01:43.216Z,2.55
2023-07-24T08:04:29.242Z,2.55
2023-07-24T08:07:14.931Z,2.65
2023-07-24T08:10:00.875Z,2.20
2023-07-24T08:12:46.991Z,2.45
2023-07-24T08:15:39.194Z,2.30
2023-07-24T08:18:25.299Z,2.70
2023-07-24T08:21:11.202Z,2.80
2023-07-24T08:23:59.189Z,2.65
2023-07-24T08:26:46.431Z,2.70
2023-07-24T08:29:32.701Z,2.22
2023-07-24T08:32:21.360Z,2.40
2023-07-24T08:35:07.741Z,2.28
2023-07-24T08:38:02.332Z,2.38
2023-07-24T08:40:48.587Z,2.65
2023-07-24T08:43:37.251Z,2.40
2023-07-24T08:46:26.355Z,2.53
2023-07-24T08:49:14.122Z,2.60
2023-07-24T08:52:01.889Z,2.50
2023-07-24T08:54:48.649Z,2.60
2023-07-24T08:57:35.768Z,2.22
2023-07-24T09:00:22.180Z,2.70
2023-07-24T09:03:09.252Z,2.47
2023-07-24T09:05:55.744Z,2.42
2023-07-24T09:08:43.232Z,2.60
2023-07-24T09:11:29.143Z,4.25
2023-07-24T09:14:24.638Z,3.00
2023-07-24T09:17:12.382Z,2.85
2023-07-24T09:19:58.954Z,2.53
2023-07-24T09:23:12.037Z,2.80
2023-07-24T09:26:00.400Z,2.45
2023-07-24T09:28:54.299Z,2.60
2023-07-24T09:31:40.392Z,2.40
2023-07-24T09:34:26.957Z,2.63
2023-07-24T09:37:27.449Z,2.28
2023-07-24T09:40:15.921Z,2.95
2023-07-24T09:45:58.158Z,2.97
2023-07-24T09:51:51.383Z,2.70
2023-07-24T09:54:58.190Z,2.72
2023-07-24T09:57:45.251Z,2.53
2023-07-24T10:00:32.550Z,2.83
2023-07-24T10:03:19.253Z,2.95
2023-07-24T10:06:05.641Z,2.80
2023-07-24T10:08:53.661Z,2.90
2023-07-24T10:11:39.791Z,2.55
2023-07-24T10:14:26.825Z,3.22
2023-07-24T10:17:12.618Z,3.00
2023-07-24T10:20:04.881Z,3.25
2023-07-24T10:22:51.617Z,3.00
2023-07-24T10:25:44.812Z,3.17
2023-07-24T10:28:34.613Z,3.20
2023-07-24T10:31:23.755Z,3.10
2023-07-24T10:34:10.490Z,2.40
2023-07-24T10:37:04.386Z,3.35
2023-07-24T10:39:50.241Z,3.33
2023-07-24T10:42:37.432Z,3.78
2023-07-24T10:45:22.970Z,2.90
2023-07-24T10:48:12.510Z,2.90
2023-07-24T10:50:59.815Z,2.65
2023-07-24T10:53:48.971Z,2.97
2023-07-24T10:56:34.634Z,2.55
2023-07-24T10:59:20.410Z,2.75
2023-07-24T11:02:06.490Z,2.80
2023-07-24T11:04:52.769Z,2.83
2023-07-24T11:07:38.610Z,2.40
2023-07-24T11:10:24.933Z,2.63
2023-07-24T11:13:12.587Z,2.78
2023-07-24T11:16:05.360Z,2.63
2023-07-24T11:18:55.121Z,2.30
2023-07-24T11:21:42.303Z,3.15
2023-07-24T11:24:27.996Z,3.00
2023-07-24T11:27:20.336Z,3.25
2023-07-24T11:30:07.027Z,2.88
2023-07-24T11:32:53.106Z,2.92
2023-07-24T11:35:41.090Z,3.13
2023-07-24T11:38:27.137Z,2.85
2023-07-24T11:41:13.897Z,2.90
2023-07-24T11:44:00.113Z,2.78
2023-07-24T11:46:45.939Z,2.85
2023-07-24T11:49:32.917Z,2.83
2023-07-24T11:52:18.672Z,2.92
2023-07-24T11:55:05.571Z,3.30
2023-07-24T11:58:01.692Z,2.90
2023-07-24T12:00:49.065Z,2.75
2023-07-24T12:03:37.728Z,3.03
2023-07-24T12:06:25.270Z,3.00
2023-07-24T12:09:14.578Z,3.00
2023-07-24T12:12:00.909Z,3.08
2023-07-24T12:14:46.471Z,3.10
2023-07-24T12:17:32.533Z,3.50
2023-07-24T12:20:18.793Z,3.50
2023-07-24T12:23:05.244Z,3.33
2023-07-24T12:25:51.407Z,3.08
2023-07-24T12:28:37.746Z,3.00
2023-07-24T12:31:26.790Z,3.05
2023-07-24T12:34:13.063Z,2.90
2023-07-24T12:36:58.794Z,3.15
2023-07-24T12:39:48.988Z,3.00
2023-07-24T12:42:35.114Z,2.70
2023-07-24T12:45:21.194Z,3.30
2023-07-24T12:48:06.625Z,2.80
2023-07-24T12:50:53.234Z,2.88
2023-07-24T12:53:41.563Z,2.63
2023-07-24T12:56:38.311Z,2.92
2023-07-24T12:59:26.749Z,2.95
2023-07-24T13:02:12.750Z,3.72
2023-07-24T13:04:58.609Z,2.88
2023-07-24T13:07:44.747Z,2.85
2023-07-24T13:10:30.348Z,2.80
2023-07-24T13:13:16.548Z,3.15
2023-07-24T13:16:02.948Z,3.08
2023-07-24T13:18:49.068Z,3.30
2023-07-24T13:21:34.801Z,3.08
2023-07-24T13:24:21.183Z,2.88
2023-07-24T13:27:08.739Z,3.28
2023-07-24T13:29:54.932Z,2.53
2023-07-24T13:32:41.808Z,2.78
2023-07-24T13:35:28.344Z,2.85
2023-07-24T13:38:15.753Z,2.63
2023-07-24T13:41:02.794Z,3.25
2023-07-24T13:43:48.936Z,3.15
2023-07-24T13:46:37.296Z,3.28
2023-07-24T13:49:25.714Z,2.47
2023-07-24T13:52:11.943Z,2.80
2023-07-24T13:54:58.295Z,2.97
2023-07-24T13:57:44.605Z,3.40
2023-07-24T14:00:30.563Z,2.90
2023-07-24T14:03:16.571Z,2.78
2023-07-24T14:06:02.609Z,3.05
2023-07-24T14:08:48.591Z,2.92
2023-07-24T14:11:34.606Z,3.17
2023-07-24T14:14:21.270Z,3.58
2023-07-24T14:17:07.256Z,3.60
2023-07-24T14:19:53.774Z,3.47
2023-07-24T14:22:39.487Z,3.85
2023-07-24T14:25:25.955Z,3.30
2023-07-24T14:28:11.927Z,3.25
2023-07-24T14:30:58.327Z,3.40
2023-07-24T14:33:43.890Z,3.10
2023-07-24T14:36:35.067Z,3.40
2023-07-24T14:39:21.178Z,3.50
2023-07-24T14:42:07.928Z,3.55
2023-07-24T14:44:54.244Z,3.53
2023-07-24T14:47:40.313Z,3.80
2023-07-24T14:50:25.973Z,3.63
2023-07-24T14:53:12.069Z,3.97
2023-07-24T14:55:57.666Z,4.00
2023-07-24T14:58:46.491Z,3.92
2023-07-24T15:01:33.129Z,4.30
2023-07-24T15:04:19.756Z,4.10
2023-07-24T15:07:06.115Z,4.72
2023-07-24T15:09:52.232Z,4.40
2023-07-24T15:12:37.819Z,4.20
2023-07-24T15:15:23.755Z,4.10
2023-07-24T15:18:11.261Z,4.10
2023-07-24T15:20:57.800Z,4.22
2023-07-24T15:23:43.734Z,4.28
2023-07-24T15:26:29.907Z,4.00
2023-07-24T15:29:19.862Z,3.92
2023-07-24T15:32:07.427Z,4.53
2023-07-24T15:34:53.330Z,4.35
2023-07-24T15:37:39.314Z,4.32
2023-07-24T15:40:24.970Z,4.65
2023-07-24T15:43:11.536Z,4.68
2023-07-24T15:45:57.623Z,4.25
2023-07-24T15:48:44.019Z,4.68
2023-07-24T15:51:31.185Z,4.38
2023-07-24T15:54:17.613Z,4.30
2023-07-24T15:57:03.288Z,4.20
2023-07-24T15:59:49.167Z,4.50
2023-07-24T16:02:35.201Z,4.32
2023-07-24T16:05:22.741Z,4.03
2023-07-24T16:08:08.292Z,4.30
2023-07-24T16:10:54.230Z,4.75
2023-07-24T16:13:40.799Z,4.78
2023-07-24T16:16:26.671Z,4.13
2023-07-24T16:19:21.293Z,4.57
2023-07-24T16:22:07.387Z,4.60
2023-07-24T16:24:53.221Z,4.60
2023-07-24T16:27:39.092Z,4.15
2023-07-24T16:30:24.920Z,4.97
2023-07-24T16:33:11.118Z,4.85
2023-07-24T16:35:56.738Z,4.72
2023-07-24T16:38:42.898Z,4.80
2023-07-24T16:41:28.405Z,4.70
2023-07-24T16:44:15.905Z,3.92
2023-07-24T16:49:51.081Z,4.88
2023-07-24T16:52:36.829Z,4.65
2023-07-24T16:55:22.817Z,4.90
2023-07-24T16:58:08.400Z,4.50
2023-07-24T17:00:54.696Z,5.25
2023-07-24T17:03:40.501Z,4.45
2023-07-24T17:06:26.610Z,4.25
2023-07-24T17:09:12.292Z,5.03
2023-07-24T17:11:58.297Z,4.95
2023-07-24T17:14:43.792Z,4.72
2023-07-24T17:17:29.881Z,5.47
2023-07-24T17:20:15.596Z,5.38
2023-07-24T17:23:03.789Z,5.32
2023-07-24T17:25:49.535Z,6.20
2023-07-24T17:28:35.358Z,5.93
2023-07-24T17:31:21.614Z,6.32
2023-07-24T17:34:07.879Z,6.25
2023-07-24T17:36:53.555Z,7.28
2023-07-24T17:39:39.501Z,6.00
2023-07-24T17:42:25.215Z,6.50
2023-07-24T17:45:11.242Z,6.45
2023-07-24T17:47:57.667Z,6.07
2023-07-24T17:50:43.863Z,6.82
2023-07-24T17:53:29.401Z,6.05
2023-07-24T17:56:15.216Z,6.18
2023-07-24T17:59:00.815Z,5.85
2023-07-24T18:01:47.213Z,6.00
2023-07-24T18:04:32.970Z,5.97
2023-07-24T18:07:19.317Z,6.22
2023-07-24T18:10:09.041Z,5.47
2023-07-24T18:12:55.791Z,5.80
2023-07-24T18:15:42.370Z,6.53
2023-07-24T18:18:28.899Z,6.20
2023-07-24T18:21:14.948Z,6.40
2023-07-24T18:24:05.994Z,6.10
2023-07-24T18:26:51.878Z,6.18
2023-07-24T18:29:38.070Z,6.22
2023-07-24T18:32:26.063Z,6.18
2023-07-24T18:35:12.877Z,5.97
2023-07-24T18:37:59.163Z,6.15
2023-07-24T18:40:45.410Z,6.18
2023-07-24T18:43:30.890Z,6.57
2023-07-24T18:46:20.012Z,7.00
2023-07-24T18:49:06.088Z,6.67
2023-07-24T18:51:53.264Z,6.85
2023-07-24T18:54:40.112Z,7.07
2023-07-24T18:57:26.678Z,6.25
2023-07-24T19:00:31.534Z,6.13
2023-07-24T19:03:37.412Z,6.15
2023-07-24T19:06:23.537Z,6.45
2023-07-24T19:09:09.952Z,5.72
2023-07-24T19:11:55.890Z,6.68
2023-07-24T19:14:41.860Z,6.97
2023-07-24T19:17:27.419Z,7.75
2023-07-24T19:20:13.856Z,7.32
2023-07-24T19:23:00.149Z,7.82
2023-07-24T19:25:47.343Z,7.30
2023-07-24T19:28:32.744Z,7.40
2023-07-24T19:31:18.722Z,7.00
2023-07-24T19:34:04.143Z,6.93
2023-07-24T19:36:50.147Z,6.93
2023-07-24T19:39:35.662Z,6.55
2023-07-24T19:42:21.887Z,6.70
2023-07-24T19:45:07.844Z,6.65
2023-07-24T19:47:53.650Z,7.32
2023-07-24T19:50:39.357Z,7.32
2023-07-24T19:53:26.925Z,6.78
2023-07-24T19:56:12.439Z,6.97
2023-07-24T19:58:58.341Z,6.55
2023-07-24T20:01:43.709Z,7.32
2023-07-24T20:04:29.747Z,7.95
2023-07-24T20:07:18.893Z,7.55
2023-07-24T20:10:05.475Z,7.55
2023-07-24T20:12:51.285Z,7.97
2023-07-24T20:15:37.476Z,8.80
2023-07-24T20:18:22.979Z,7.75
2023-07-24T20:21:09.154Z,7.80
2023-07-24T20:23:55.450Z,7.13
2023-07-24T20:26:41.269Z,7.05
2023-07-24T20:29:26.868Z,7.28
2023-07-24T20:32:13.468Z,7.45
2023-07-24T20:34:59.368Z,5.60
2023-07-24T20:37:45.294Z,6.35
2023-07-24T20:40:31.254Z,4.72
2023-07-24T20:43:17.268Z,6.68
2023-07-24T20:46:14.230Z,6.70
2023-07-24T20:49:00.199Z,5.80
2023-07-24T20:51:46.262Z,5.90
2023-07-24T20:54:32.518Z,5.00
2023-07-24T20:57:18.048Z,5.28
2023-07-24T21:00:04.327Z,5.07
2023-07-24T21:02:51.948Z,5.03
2023-07-24T21:05:38.675Z,5.18
2023-07-24T21:08:24.444Z,5.65
2023-07-24T21:11:10.279Z,5.13
2023-07-24T21:13:55.873Z,5.30
2023-07-24T21:16:41.653Z,5.65
2023-07-24T21:19:27.480Z,5.53
2023-07-24T21:22:14.394Z,5.75
2023-07-24T21:25:00.069Z,6.10
2023-07-24T21:27:46.392Z,6.75
2023-07-24T21:30:32.064Z,6.22
2023-07-24T21:33:18.368Z,5.47
2023-07-24T21:36:04.789Z,5.13
2023-07-24T21:38:53.064Z,5.47
2023-07-24T21:41:39.016Z,5.03
2023-07-24T21:44:27.420Z,5.00
2023-07-24T21:47:13.362Z,5.03
2023-07-24T21:50:00.310Z,5.30
2023-07-24T21:52:46.433Z,4.60
2023-07-24T21:55:32.201Z,5.05
2023-07-24T21:58:18.144Z,5.32
2023-07-24T22:01:04.341Z,4.40
2023-07-24T22:03:49.959Z,3.35
2023-07-24T22:06:36.178Z,2.22
2023-07-24T22:09:21.998Z,2.40
2023-07-24T22:12:08.043Z,2.20
2023-07-24T22:14:54.183Z,2.20
2023-07-24T22:17:40.001Z,2.20
2023-07-24T22:23:14.829Z,2.00
2023-07-24T22:26:03.393Z,2.42
2023-07-24T22:28:49.172Z,2.30
2023-07-24T22:31:34.875Z,2.42
2023-07-24T22:34:20.824Z,2.13
2023-07-24T22:37:07.879Z,2.25
2023-07-24T22:39:53.966Z,2.53
2023-07-24T22:42:39.501Z,1.98
2023-07-24T22:45:26.100Z,2.50
2023-07-24T22:48:11.972Z,2.30
2023-07-24T22:50:57.686Z,2.20
2023-07-24T22:53:44.059Z,2.15
2023-07-24T22:56:30.096Z,1.80
2023-07-24T22:59:23.072Z,2.20
2023-07-24T23:02:09.146Z,2.10
2023-07-24T23:04:55.132Z,2.60
2023-07-24T23:07:41.060Z,2.70
2023-07-24T23:10:26.491Z,2.58
2023-07-24T23:13:12.437Z,2.90
2023-07-24T23:16:00.563Z,2.40
2023-07-24T23:18:46.292Z,2.30
2023-07-24T23:21:32.223Z,2.88
2023-07-24T23:24:18.241Z,2.33
2023-07-24T23:27:03.994Z,2.35
2023-07-24T23:29:50.130Z,2.20
2023-07-24T23:32:35.842Z,2.17
2023-07-24T23:35:21.826Z,1.95
2023-07-24T23:38:07.549Z,2.15
2023-07-24T23:41:00.921Z,1.75
2023-07-24T23:43:48.145Z,1.95
2023-07-24T23:46:35.588Z,2.00
2023-07-24T23:49:21.530Z,2.30
2023-07-24T23:52:08.077Z,1.90
2023-07-24T23:54:54.251Z,2.13
2023-07-24T23:57:40.080Z,1.83
